Time;durP1;ratioP1;P1;durP2;ratioP2;P2;SDS_P1;SDS_P2;PMS_P1;PMS_P2;Temp;Humidity;BMP_temperature;BMP_pressure;BME280_temperature;BME280_humidity;BME280_pressure;Samples;Min_cycle;Max_cycle;Signal;HPM_P1;HPM_P2
2021/09/19 00:02:06;;;;;;;10.82;2.90;;;;;;;15.98;100.00;99526.78;6303437;22;20115;-52
2021/09/19 00:05:11;;;;;;;12.13;3.30;;;;;;;16.02;100.00;99530.09;6301354;22;20017;-52
2021/09/19 00:08:14;;;;;;;7.90;2.38;;;;;;;15.98;100.00;99530.38;6283132;22;20021;-53
2021/09/19 00:11:18;;;;;;;5.78;2.58;;;;;;;16.04;100.00;99536.72;6302465;22;20026;-52
2021/09/19 00:14:22;;;;;;;7.78;2.17;;;;;;;16.12;100.00;99534.84;6300977;22;20018;-52
2021/09/19 00:17:25;;;;;;;15.68;3.60;;;;;;;16.13;100.00;99535.63;6300642;22;20718;-53
2021/09/19 00:20:29;;;;;;;3.13;1.75;;;;;;;16.07;100.00;99527.22;6300586;22;20014;-52
2021/09/19 00:23:32;;;;;;;8.63;2.70;;;;;;;16.08;100.00;99523.13;6301539;22;20017;-52
2021/09/19 00:26:35;;;;;;;8.85;2.75;;;;;;;16.06;100.00;99520.09;6303063;22;20098;-52
2021/09/19 00:29:38;;;;;;;4.60;2.10;;;;;;;16.01;100.00;99520.88;6301325;22;20022;-52
2021/09/19 00:32:42;;;;;;;6.13;2.08;;;;;;;15.96;100.00;99521.69;6280353;22;20099;-53
2021/09/19 00:35:45;;;;;;;7.15;2.53;;;;;;;15.89;100.00;99516.63;6299545;22;20049;-53
2021/09/19 00:38:49;;;;;;;8.15;2.45;;;;;;;15.74;100.00;99505.72;6300655;22;20036;-52
2021/09/19 00:41:52;;;;;;;14.23;3.25;;;;;;;15.61;100.00;99513.22;6298687;22;20053;-53
2021/09/19 00:45:00;;;;;;;3.55;2.15;;;;;;;15.48;100.00;99510.22;6299811;22;20017;-52
2021/09/19 00:48:04;;;;;;;9.82;3.05;;;;;;;15.34;100.00;99511.25;6299231;22;20228;-53
2021/09/19 00:51:08;;;;;;;4.82;1.98;;;;;;;15.19;100.00;99514.38;6300288;22;20018;-52
2021/09/19 00:54:12;;;;;;;2.95;1.65;;;;;;;15.09;100.00;99519.50;6299399;22;20068;-52
2021/09/19 00:57:18;;;;;;;4.75;2.33;;;;;;;15.06;100.00;99519.78;6300523;22;20033;-53
2021/09/19 01:00:25;;;;;;;7.88;2.17;;;;;;;15.05;100.00;99518.28;6281824;22;20644;-53
2021/09/19 01:03:29;;;;;;;9.05;3.20;;;;;;;15.05;100.00;99519.03;6301378;22;20062;-52
2021/09/19 01:06:34;;;;;;;11.52;3.33;;;;;;;15.05;100.00;99519.03;6299302;22;20708;-52
2021/09/19 01:09:39;;;;;;;6.57;3.03;;;;;;;15.12;100.00;99523.34;6279457;22;20064;-53
2021/09/19 01:12:44;;;;;;;6.03;2.85;;;;;;;15.05;100.00;99515.47;6298991;22;20551;-52
2021/09/19 01:15:49;;;;;;;8.80;3.50;;;;;;;14.99;100.00;99518.28;6298375;22;20017;-52
2021/09/19 01:18:54;;;;;;;7.22;3.83;;;;;;;14.91;100.00;99516.50;6298737;22;20494;-53
2021/09/19 01:21:58;;;;;;;7.65;3.15;;;;;;;14.76;100.00;99525.22;6298833;22;20386;-52
2021/09/19 01:25:04;;;;;;;5.22;2.75;;;;;;;14.74;100.00;99521.41;6299143;22;20466;-52
2021/09/19 01:28:08;;;;;;;8.55;1.85;;;;;;;14.73;100.00;99520.63;6298085;22;20125;-52
2021/09/19 01:31:13;;;;;;;10.05;3.60;;;;;;;14.81;100.00;99518.81;6299359;22;20018;-52
2021/09/19 01:34:16;;;;;;;10.00;2.85;;;;;;;14.81;100.00;99527.22;6298558;22;20418;-52
2021/09/19 01:37:19;;;;;;;11.05;3.50;;;;;;;14.81;100.00;99520.88;6298161;22;20434;-53
2021/09/19 01:40:23;;;;;;;4.25;2.63;;;;;;;14.82;100.00;99517.56;6298639;22;20064;-52
2021/09/19 01:43:26;;;;;;;10.80;3.33;;;;;;;14.76;100.00;99511.19;6298799;22;20057;-53
2021/09/19 01:46:28;;;;;;;7.05;2.22;;;;;;;14.79;100.00;99501.75;6297892;22;20022;-52
2021/09/19 01:49:32;;;;;;;8.60;2.55;;;;;;;14.75;100.00;99506.84;6297815;22;20030;-52
2021/09/19 01:52:36;;;;;;;3.95;1.92;;;;;;;14.79;100.00;99498.94;6298361;22;20014;-52
2021/09/19 01:55:39;;;;;;;3.35;1.92;;;;;;;14.90;100.00;99500.97;6298612;22;20268;-52
2021/09/19 01:58:45;;;;;;;9.40;3.35;;;;;;;14.92;100.00;99504.78;6298456;22;20033;-54
2021/09/19 02:01:49;;;;;;;5.88;2.75;;;;;;;14.98;100.00;99508.34;6280195;22;20704;-52
2021/09/19 02:04:54;;;;;;;5.57;2.13;;;;;;;14.98;100.00;99508.34;6299532;22;20911;-52
2021/09/19 02:07:57;;;;;;;7.05;2.92;;;;;;;15.03;100.00;99510.34;6300519;22;20413;-53
2021/09/19 02:11:00;;;;;;;6.35;2.20;;;;;;;15.11;100.00;99511.38;6301434;22;20339;-54
2021/09/19 02:14:04;;;;;;;6.03;2.55;;;;;;;15.12;100.00;99507.28;6301448;22;20509;-53
2021/09/19 02:17:08;;;;;;;5.35;3.13;;;;;;;15.15;100.00;99506.25;6300721;22;20387;-53
2021/09/19 02:20:14;;;;;;;7.93;2.88;;;;;;;15.14;100.00;99510.31;6299204;22;20071;-53
2021/09/19 02:23:17;;;;;;;9.95;2.35;;;;;;;15.20;100.00;99516.66;6300056;22;20029;-53
2021/09/19 02:26:20;;;;;;;9.75;3.25;;;;;;;15.27;100.00;99503.41;6299697;22;20403;-53
2021/09/19 02:29:24;;;;;;;7.47;3.30;;;;;;;15.31;100.00;99506.72;6299637;22;20094;-53
2021/09/19 02:32:28;;;;;;;8.43;3.72;;;;;;;15.31;100.00;99518.66;6299726;22;20018;-53
2021/09/19 02:35:32;;;;;;;15.48;3.15;;;;;;;15.24;100.00;99524.84;6299122;22;20169;-53
2021/09/19 02:38:35;;;;;;;6.10;2.90;;;;;;;15.05;100.00;99515.47;6298672;22;20028;-53
2021/09/19 02:41:39;;;;;;;5.40;2.83;;;;;;;14.97;100.00;99512.41;6298401;22;20079;-53
2021/09/19 02:44:42;;;;;;;8.88;2.65;;;;;;;14.87;100.00;99514.00;6298879;22;20343;-53
2021/09/19 02:47:47;;;;;;;11.88;3.40;;;;;;;14.77;100.00;99518.31;6298479;22;20025;-53
2021/09/19 02:50:50;;;;;;;9.68;2.78;;;;;;;14.74;100.00;99518.59;6298928;22;20324;-53
2021/09/19 02:53:54;;;;;;;9.32;2.90;;;;;;;14.68;100.00;99526.25;6298666;22;20041;-53
2021/09/19 02:56:57;;;;;;;8.27;3.55;;;;;;;14.67;100.00;99533.88;6298379;22;20145;-54
2021/09/19 03:00:02;;;;;;;6.97;2.38;;;;;;;14.68;100.00;99529.81;6299366;22;20363;-53
2021/09/19 03:03:05;;;;;;;6.50;2.10;;;;;;;14.69;100.00;99530.56;6300691;22;20022;-52
2021/09/19 03:06:09;;;;;;;4.47;2.38;;;;;;;14.61;100.00;99523.97;6300862;22;20455;-53
2021/09/19 03:09:13;;;;;;;15.10;3.78;;;;;;;14.64;100.00;99529.28;6299937;22;20347;-53
2021/09/19 03:12:16;;;;;;;9.35;2.90;;;;;;;14.74;100.00;99527.78;6281713;22;20022;-52
2021/09/19 03:15:20;;;;;;;8.13;3.58;;;;;;;14.77;100.00;99531.59;6300502;22;20049;-53
2021/09/19 03:18:23;;;;;;;5.60;2.88;;;;;;;14.81;100.00;99538.44;6279913;22;20026;-53
2021/09/19 03:21:27;;;;;;;5.60;2.38;;;;;;;14.90;100.00;99535.38;6299170;22;20045;-52
2021/09/19 03:24:31;;;;;;;6.95;2.45;;;;;;;14.92;100.00;99532.81;6299104;22;21016;-53
2021/09/19 03:27:34;;;;;;;7.45;2.53;;;;;;;15.02;100.00;99530.50;6299211;22;20087;-53
2021/09/19 03:30:37;;;;;;;5.45;2.70;;;;;;;15.05;100.00;99541.44;6299879;22;20076;-53
2021/09/19 03:33:41;;;;;;;10.10;3.22;;;;;;;15.08;100.00;99546.03;6299537;22;20025;-53
2021/09/19 03:36:45;;;;;;;5.55;3.10;;;;;;;15.12;100.00;99551.38;6299064;22;20235;-53
2021/09/19 03:39:48;;;;;;;12.93;2.45;;;;;;;15.11;100.00;99550.63;6298945;22;20013;-53
2021/09/19 03:42:54;;;;;;;8.82;3.38;;;;;;;15.17;100.00;99548.56;6300127;22;20018;-53
2021/09/19 03:45:58;;;;;;;10.13;3.92;;;;;;;15.24;100.00;99555.69;6279775;22;20202;-53
2021/09/19 03:49:02;;;;;;;11.40;3.60;;;;;;;15.27;100.00;99551.09;6299486;22;20025;-53
2021/09/19 03:52:05;;;;;;;8.27;2.97;;;;;;;15.31;100.00;99557.22;6299740;22;20601;-53
2021/09/19 03:55:10;;;;;;;10.98;3.50;;;;;;;15.38;100.00;99556.66;6279725;22;20033;-53
2021/09/19 03:58:13;;;;;;;4.68;2.72;;;;;;;15.44;100.00;99563.06;6298600;22;20030;-53
2021/09/19 04:01:17;;;;;;;8.50;2.70;;;;;;;15.43;100.00;99558.69;6298383;22;20013;-53
2021/09/19 04:04:20;;;;;;;6.88;3.25;;;;;;;15.45;100.00;99561.75;6298521;22;20017;-53
2021/09/19 04:07:24;;;;;;;13.52;2.38;;;;;;;15.46;100.00;99555.66;6279375;22;20058;-53
2021/09/19 04:10:27;;;;;;;11.52;2.53;;;;;;;15.50;100.00;99552.56;6298812;22;20055;-53
2021/09/19 04:13:31;;;;;;;6.68;2.25;;;;;;;15.54;100.00;99564.28;6301303;22;20663;-53
2021/09/19 04:16:35;;;;;;;2.78;1.08;;;;;;;15.56;100.00;99570.16;6299040;22;20092;-53
2021/09/19 04:19:39;;;;;;;2.50;1.15;;;;;;;15.62;100.00;99573.69;6299670;22;20398;-53
2021/09/19 04:22:42;;;;;;;1.45;0.50;;;;;;;15.63;100.00;99569.59;6301928;22;20523;-53
2021/09/19 04:25:45;;;;;;;0.35;0.35;;;;;;;15.66;100.00;99568.56;6301175;22;20018;-53
2021/09/19 04:28:49;;;;;;;1.05;0.43;;;;;;;15.68;100.00;99575.19;6301540;22;20787;-53
2021/09/19 04:31:52;;;;;;;1.38;0.32;;;;;;;15.72;100.00;99588.97;6279986;22;20449;-53
2021/09/19 04:34:55;;;;;;;0.45;0.20;;;;;;;15.75;100.00;99576.69;6300248;22;20021;-53
2021/09/19 04:37:59;;;;;;;4.43;0.60;;;;;;;15.76;100.00;99581.03;6300007;22;20884;-53
2021/09/19 04:41:02;;;;;;;0.60;0.20;;;;;;;15.78;100.00;99584.09;6300500;22;20473;-53
2021/09/19 04:44:05;;;;;;;2.38;0.63;;;;;;;15.77;100.00;99579.75;6299885;22;20267;-53
2021/09/19 04:47:10;;;;;;;1.88;0.25;;;;;;;15.73;100.00;99582.81;6301006;22;20022;-53
2021/09/19 04:50:13;;;;;;;0.47;0.40;;;;;;;15.68;100.00;99585.69;6281257;22;20018;-52
2021/09/19 04:53:17;;;;;;;2.50;0.40;;;;;;;15.54;100.00;99590.31;6301848;22;20344;-53
2021/09/19 04:56:21;;;;;;;0.50;0.28;;;;;;;15.44;100.00;99593.94;6299329;22;20075;-53
2021/09/19 04:59:24;;;;;;;0.10;0.10;;;;;;;15.35;100.00;99591.38;6299159;22;20017;-53
2021/09/19 05:02:28;;;;;;;0.47;0.10;;;;;;;15.26;100.00;99595.22;6299380;22;20018;-53
2021/09/19 05:05:32;;;;;;;0.10;0.10;;;;;;;15.16;100.00;99586.31;6299884;22;20013;-53
2021/09/19 05:08:36;;;;;;;0.63;0.30;;;;;;;15.12;100.00;99593.47;6304144;22;20049;-52
2021/09/19 05:11:40;;;;;;;0.10;0.10;;;;;;;15.03;100.00;99594.50;6292961;22;20025;-51
2021/09/19 05:14:44;;;;;;;1.23;0.30;;;;;;;14.91;100.00;99595.78;6293699;22;20083;-52
2021/09/19 05:17:47;;;;;;;0.80;0.40;;;;;;;14.83;100.00;99592.00;6292175;22;20010;-51
2021/09/19 05:20:51;;;;;;;0.20;0.10;;;;;;;14.75;100.00;99602.16;6295050;22;20497;-51
2021/09/19 05:23:54;;;;;;;0.17;0.08;;;;;;;14.71;100.00;99601.66;6294722;22;20018;-51
2021/09/19 05:26:57;;;;;;;0.90;0.10;;;;;;;14.68;100.00;99599.13;6293801;22;20026;-51
2021/09/19 05:30:00;;;;;;;0.30;0.10;;;;;;;14.68;100.00;99597.09;6292661;22;20454;-51
2021/09/19 05:33:03;;;;;;;0.10;0.00;;;;;;;14.68;100.00;99596.31;6294494;22;20401;-51
2021/09/19 05:36:08;;;;;;;1.17;0.32;;;;;;;14.64;100.00;99599.38;6293423;22;20593;-51
2021/09/19 05:39:11;;;;;;;1.85;0.75;;;;;;;14.54;100.00;99598.09;6293365;22;20033;-51
2021/09/19 05:42:14;;;;;;;0.77;0.30;;;;;;;14.53;100.00;99602.16;6273155;22;20018;-51
2021/09/19 05:45:18;;;;;;;1.15;0.38;;;;;;;14.49;100.00;99601.66;6292192;22;20017;-51
2021/09/19 05:48:21;;;;;;;0.40;0.40;;;;;;;14.41;100.00;99600.63;6292859;22;20026;-51
2021/09/19 05:51:27;;;;;;;0.32;0.10;;;;;;;14.40;100.00;99601.91;6292521;22;20627;-51
2021/09/19 05:54:30;;;;;;;0.40;0.40;;;;;;;14.37;100.00;99612.09;6293413;22;20363;-51
2021/09/19 05:57:33;;;;;;;0.68;0.60;;;;;;;14.34;100.00;99609.53;6290278;22;20296;-52
2021/09/19 06:00:36;;;;;;;1.38;0.50;;;;;;;14.32;100.00;99614.88;6287696;22;20072;-53
2021/09/19 06:03:40;;;;;;;0.32;0.20;;;;;;;14.29;100.00;99621.50;6293628;22;20238;-52
2021/09/19 06:06:43;;;;;;;0.10;0.08;;;;;;;14.34;100.00;99620.75;6295950;22;20728;-53
2021/09/19 06:09:46;;;;;;;0.10;0.10;;;;;;;14.36;100.00;99615.38;6300453;22;20088;-54
2021/09/19 06:12:50;;;;;;;0.20;0.10;;;;;;;14.34;100.00;99615.13;6300832;22;20083;-52
2021/09/19 06:15:54;;;;;;;0.05;0.00;;;;;;;14.33;100.00;99616.41;6303872;22;20022;-53
2021/09/19 06:18:57;;;;;;;3.28;0.40;;;;;;;14.33;100.00;99616.41;6301996;22;20666;-53
2021/09/19 06:22:05;;;;;;;7.95;0.20;;;;;;;14.27;100.00;99624.03;6308339;22;20300;-53
2021/09/19 06:25:08;;;;;;;0.10;0.10;;;;;;;14.32;100.00;99629.66;6292714;22;20152;-53
2021/09/19 06:28:12;;;;;;;3.53;0.30;;;;;;;14.29;100.00;99632.72;6291139;22;20478;-52
2021/09/19 06:31:16;;;;;;;1.05;0.40;;;;;;;14.35;100.00;99645.47;6293227;22;20059;-52
2021/09/19 06:34:19;;;;;;;3.63;0.15;;;;;;;14.38;100.00;99652.06;6290822;22;20317;-54
2021/09/19 06:37:23;;;;;;;0.30;0.30;;;;;;;14.32;100.00;99648.50;6275456;22;20290;-53
2021/09/19 06:40:27;;;;;;;0.10;0.10;;;;;;;14.29;100.00;99638.31;6293157;22;20464;-53
2021/09/19 06:43:29;;;;;;;0.30;0.20;;;;;;;14.33;100.00;99648.00;6294523;22;20250;-53
2021/09/19 06:46:33;;;;;;;1.65;0.40;;;;;;;14.34;100.00;99645.94;6293231;22;21021;-53
2021/09/19 06:49:36;;;;;;;1.42;0.68;;;;;;;14.32;100.00;99645.69;6294021;22;20038;-53
2021/09/19 06:52:39;;;;;;;0.38;0.10;;;;;;;14.34;100.00;99640.34;6292019;22;20528;-54
2021/09/19 06:55:42;;;;;;;1.05;0.95;;;;;;;14.34;100.00;99635.53;6255576;22;20021;-55
2021/09/19 06:58:45;;;;;;;0.10;0.10;;;;;;;14.27;100.00;99644.38;6292759;22;20578;-55
2021/09/19 07:15:49;;;;;;;5.05;0.80;;;;;;;14.25;100.00;99677.72;6292577;22;1369457;-57
2021/09/19 07:18:52;;;;;;;0.80;0.30;;;;;;;14.29;100.00;99688.75;6328757;22;20123;-57
2021/09/19 07:21:55;;;;;;;0.45;0.30;;;;;;;14.22;100.00;99678.75;6327678;22;20213;-59
2021/09/19 07:24:58;;;;;;;3.15;0.60;;;;;;;14.17;100.00;99687.13;6347575;22;20021;-56
2021/09/19 07:28:03;;;;;;;1.95;0.57;;;;;;;14.15;100.00;99687.63;6328447;22;20517;-58
2021/09/19 07:31:07;;;;;;;1.55;0.57;;;;;;;14.17;100.00;99681.53;6328751;22;20056;-57
2021/09/19 07:34:10;;;;;;;0.30;0.30;;;;;;;14.16;100.00;99688.41;6328217;22;20059;-57
2021/09/19 07:37:14;;;;;;;4.43;0.95;;;;;;;14.13;100.00;99686.59;6328137;22;20025;-57
2021/09/19 07:40:17;;;;;;;0.20;0.15;;;;;;;14.16;100.00;99691.22;6327963;22;20022;-59
2021/09/19 07:43:20;;;;;;;4.47;0.98;;;;;;;14.22;100.00;99689.19;6347057;22;20026;-59
2021/09/19 07:46:23;;;;;;;0.73;0.73;;;;;;;14.33;100.00;99689.25;6327956;22;20057;-58
2021/09/19 07:49:28;;;;;;;1.88;1.23;;;;;;;14.38;100.00;99692.06;6327981;22;20083;-58
2021/09/19 07:52:31;;;;;;;1.48;0.45;;;;;;;14.51;100.00;99688.78;6346934;22;20022;-58
2021/09/19 07:55:34;;;;;;;1.92;0.75;;;;;;;14.73;100.00;99694.41;6327934;22;20017;-59
2021/09/19 07:58:37;;;;;;;2.42;0.25;;;;;;;14.89;100.00;99690.88;6347248;22;20025;-59
2021/09/19 08:01:41;;;;;;;2.90;0.38;;;;;;;14.85;100.00;99693.16;6328334;22;20085;-59
2021/09/19 08:04:44;;;;;;;1.63;0.90;;;;;;;14.92;100.00;99689.84;6337666;22;20753;-58
2021/09/19 08:07:48;;;;;;;0.73;0.40;;;;;;;14.97;100.00;99697.50;6309462;22;20022;-58
2021/09/19 08:10:51;;;;;;;5.07;0.43;;;;;;;14.93;100.00;99691.38;6310829;22;20100;-58
2021/09/19 08:13:59;;;;;;;1.20;0.15;;;;;;;14.98;100.00;99690.63;6308672;22;20476;-58
2021/09/19 08:17:23;;;;;;;0.55;0.47;;;;;;;15.05;100.00;99698.50;6302549;22;20021;-59
2021/09/19 08:20:26;;;;;;;0.45;0.20;;;;;;;15.13;100.00;99710.78;6303755;22;20431;-60
2021/09/19 08:23:49;;;;;;;0.50;0.40;;;;;;;15.15;100.00;99713.84;6283620;22;20108;-60
2021/09/19 08:26:52;;;;;;;0.20;0.20;;;;;;;15.16;100.00;99704.13;6312497;22;20017;-60
2021/09/19 08:30:15;;;;;;;1.75;0.40;;;;;;;15.17;100.00;99716.88;6303362;22;20064;-59
2021/09/19 08:33:34;;;;;;;0.50;0.40;;;;;;;15.08;100.00;99708.72;6312215;22;20010;-59
2021/09/19 08:36:53;;;;;;;;;;;;;;;;;;;;;
2021/09/19 08:40:34;;;;;;;0.10;0.10;;;;;;;15.02;100.00;99715.59;6313850;22;20079;-59
2021/09/19 08:43:39;;;;;;;0.22;0.10;;;;;;;14.97;100.00;99713.56;6299729;22;20629;-60
2021/09/19 08:46:46;;;;;;;0.57;0.30;;;;;;;14.85;100.00;99715.59;6310832;22;20022;-59
2021/09/19 08:49:49;;;;;;;0.20;0.20;;;;;;;14.68;100.00;99720.44;6310793;22;20033;-57
2021/09/19 08:52:52;;;;;;;0.75;0.75;;;;;;;14.53;100.00;99719.84;6307527;22;21125;-59
2021/09/19 08:55:55;;;;;;;0.38;0.10;;;;;;;14.34;100.00;99721.59;6285434;22;20030;-59
2021/09/19 08:58:58;;;;;;;0.40;0.25;;;;;;;14.19;100.00;99718.19;6305132;22;20010;-59
2021/09/19 09:02:03;;;;;;;3.03;0.57;;;;;;;14.23;100.00;99722.28;6303213;22;20067;-58
2021/09/19 09:05:06;;;;;;;0.40;0.10;;;;;;;14.29;100.00;99722.34;6299181;22;20026;-59
2021/09/19 09:08:10;;;;;;;0.20;0.20;;;;;;;14.34;100.00;99730.00;6297152;22;20301;-59
2021/09/19 09:11:13;;;;;;;0.52;0.38;;;;;;;14.34;100.00;99736.38;6296678;22;20386;-59
2021/09/19 09:14:21;;;;;;;0.20;0.20;;;;;;;14.41;100.00;99737.91;6279388;22;20448;-59
2021/09/19 09:17:26;;;;;;;6.60;0.32;;;;;;;14.72;100.00;99748.97;6296091;22;20523;-59
2021/09/19 09:20:45;;;;;;;3.28;1.08;;;;;;;15.00;100.00;99737.78;6303000;22;20037;-59
2021/09/19 09:23:52;;;;;;;0.57;0.30;;;;;;;15.09;100.00;99737.53;6304540;22;20033;-58
2021/09/19 09:26:55;;;;;;;0.82;0.30;;;;;;;15.39;100.00;99743.41;6284107;22;20072;-58
2021/09/19 09:30:08;;;;;;;0.73;0.47;;;;;;;15.58;100.00;99733.19;6284090;22;20247;-58
2021/09/19 09:33:13;;;;;;;2.47;0.20;;;;;;;15.46;100.00;99737.31;6301800;22;20698;-58
2021/09/19 09:36:16;;;;;;;0.28;0.17;;;;;;;15.27;100.00;99734.22;6302002;22;20044;-59
2021/09/19 09:39:27;;;;;;;0.28;0.10;;;;;;;15.10;100.00;99742.63;6302556;22;20014;-58
2021/09/19 09:42:36;;;;;;;2.00;1.08;;;;;;;15.13;100.00;99733.22;6302369;22;20080;-49
2021/09/19 09:45:43;;;;;;;3.03;0.70;;;;;;;15.24;100.00;99731.66;6319574;22;20046;-48
2021/09/19 09:48:46;;;;;;;2.70;0.45;;;;;;;15.51;100.00;99739.31;6337477;22;20025;-48
2021/09/19 09:51:49;;;;;;;1.58;0.60;;;;;;;15.72;100.00;99732.91;6336656;22;20071;-48
2021/09/19 09:54:58;;;;;;;1.73;0.40;;;;;;;15.90;100.00;99742.81;6336842;22;20017;-48
2021/09/19 09:58:10;;;;;;;3.20;0.38;;;;;;;16.10;100.00;99736.88;6338908;22;20129;-48
2021/09/19 10:01:12;;;;;;;0.80;0.63;;;;;;;16.22;100.00;99746.78;6338976;22;20068;-48
2021/09/19 10:04:16;;;;;;;0.50;0.40;;;;;;;16.32;100.00;99734.00;6338577;22;20469;-48
2021/09/19 10:07:19;;;;;;;1.65;0.70;;;;;;;16.51;100.00;99740.56;6338704;22;20343;-48
2021/09/19 10:10:23;;;;;;;3.20;1.15;;;;;;;16.62;100.00;99734.13;6338763;22;20029;-49
2021/09/19 10:13:27;;;;;;;0.50;0.38;;;;;;;16.80;100.00;99727.09;6338845;22;20022;-47
2021/09/19 10:16:31;;;;;;;0.45;0.20;;;;;;;16.79;100.00;99731.19;6338599;22;20029;-47
2021/09/19 10:19:34;;;;;;;3.85;0.75;;;;;;;16.82;100.00;99735.78;6338786;22;20068;-48
2021/09/19 10:22:55;;;;;;;1.15;0.95;;;;;;;16.86;100.00;99736.25;6338107;22;20071;-47
2021/09/19 10:26:11;;;;;;;1.15;0.20;;;;;;;16.70;100.00;99742.78;6338401;22;20071;-48
2021/09/19 10:29:18;;;;;;;4.95;0.28;;;;;;;16.49;100.00;99737.50;6337561;22;20067;-47
2021/09/19 10:32:48;;;;;;;3.83;0.38;;;;;;;16.47;100.00;99734.44;6337632;22;20719;-48
2021/09/19 10:35:51;;;;;;;3.72;0.57;;;;;;;16.47;100.00;99742.88;6338787;22;20026;-49
2021/09/19 10:39:10;;;;;;;0.93;0.25;;;;;;;16.53;100.00;99732.38;6338282;22;20359;-48
2021/09/19 10:42:20;;;;;;;1.05;0.40;;;;;;;16.58;100.00;99722.38;6338588;22;20079;-48
2021/09/19 10:45:36;;;;;;;0.82;0.40;;;;;;;16.52;100.00;99730.84;6338176;22;20069;-48
2021/09/19 10:48:41;;;;;;;1.13;0.63;;;;;;;16.61;100.00;99730.53;6338803;22;20037;-48
2021/09/19 10:51:59;;;;;;;0.45;0.30;;;;;;;16.67;100.00;99731.25;6338511;22;20025;-47
2021/09/19 10:55:19;;;;;;;7.38;0.45;;;;;;;16.73;100.00;99722.03;6338644;22;20037;-48
2021/09/19 10:58:33;;;;;;;0.35;0.20;;;;;;;16.67;100.00;99725.63;6319658;22;20085;-48
2021/09/19 11:01:41;;;;;;;3.40;1.05;;;;;;;16.70;100.00;99734.34;6337733;22;20021;-48
2021/09/19 11:04:44;;;;;;;0.15;0.10;;;;;;;16.67;100.00;99725.63;6337751;22;20037;-48
2021/09/19 11:07:48;;;;;;;0.68;0.45;;;;;;;16.78;100.00;99726.88;6338492;22;20060;-48
2021/09/19 11:10:53;;;;;;;1.48;0.85;;;;;;;16.75;100.00;99727.91;6337785;22;20037;-58
2021/09/19 11:14:00;;;;;;;0.80;0.32;;;;;;;16.71;100.00;99730.22;6338253;22;20038;-57
2021/09/19 11:17:21;;;;;;;0.35;0.30;;;;;;;16.77;100.00;99733.75;6337671;22;20069;-56
2021/09/19 11:20:25;;;;;;;4.30;0.45;;;;;;;16.98;100.00;99732.09;6336278;22;20084;-57
2021/09/19 11:23:29;;;;;;;0.90;0.35;;;;;;;17.32;100.00;99733.38;6318420;22;20022;-57
2021/09/19 11:26:38;;;;;;;1.35;0.73;;;;;;;17.54;100.00;99723.97;6338350;22;20102;-58
2021/09/19 11:29:42;;;;;;;0.50;0.28;;;;;;;17.62;100.00;99722.88;6337933;22;20037;-58
2021/09/19 11:32:46;;;;;;;5.50;0.85;;;;;;;17.66;100.00;99723.34;6338458;22;20331;-57
2021/09/19 11:35:49;;;;;;;1.75;0.30;;;;;;;17.78;100.00;99724.72;6338590;22;20021;-59
2021/09/19 11:38:54;;;;;;;0.32;0.10;;;;;;;17.82;100.00;99725.19;6338781;22;20046;-56
2021/09/19 11:42:04;;;;;;;0.10;0.10;;;;;;;18.02;100.00;99724.72;6337882;22;20095;-57
2021/09/19 11:45:09;;;;;;;2.55;0.43;;;;;;;18.20;100.00;99723.22;6337395;22;20076;-59
2021/09/19 11:48:13;;;;;;;1.15;0.55;;;;;;;18.32;100.00;99732.31;6337611;22;20343;-58
2021/09/19 11:51:18;;;;;;;4.13;1.00;;;;;;;18.31;100.00;99730.78;6338394;22;20067;-59
2021/09/19 11:54:21;;;;;;;0.47;0.00;;;;;;;18.25;100.00;99722.41;6339548;22;20103;-59
2021/09/19 11:57:24;;;;;;;0.77;0.10;;;;;;;18.19;100.00;99730.91;6339326;22;20025;-56
2021/09/19 12:00:30;;;;;;;0.43;0.28;;;;;;;18.10;100.00;99734.09;6320256;22;20026;-56
2021/09/19 12:03:35;;;;;;;0.50;0.30;;;;;;;18.15;100.00;99729.69;6339425;22;20022;-57
2021/09/19 12:06:41;;;;;;;1.50;0.10;;;;;;;18.25;100.00;99735.75;6339893;22;20025;-57
2021/09/19 12:09:52;;;;;;;1.65;0.20;;;;;;;18.34;100.00;99736.13;6339667;22;20053;-57
2021/09/19 12:12:55;;;;;;;;;;;;;;;18.54;100.00;99743.31;6339863;22;20458;-57
2021/09/19 12:16:13;;;;;;;3.25;0.10;;;;;;;18.73;100.00;99738.47;6339106;22;19917;-58
2021/09/19 12:19:20;;;;;;;0.20;0.10;;;;;;;18.82;100.00;99729.59;6339389;22;20025;-58
2021/09/19 12:22:25;;;;;;;0.45;0.10;;;;;;;18.78;100.00;99729.13;6337518;22;20025;-57
2021/09/19 12:25:29;;;;;;;4.55;0.10;;;;;;;18.76;100.00;99731.72;6338754;22;20021;-58
2021/09/19 12:28:37;;;;;;;0.10;0.00;;;;;;;18.70;100.00;99736.69;6338718;22;20065;-61
2021/09/19 12:31:49;;;;;;;0.65;0.10;;;;;;;18.73;100.00;99732.81;6338501;22;20086;-58
2021/09/19 12:35:00;;;;;;;0.35;0.10;;;;;;;18.82;100.00;99741.63;6338968;22;20132;-59
2021/09/19 12:38:09;;;;;;;4.93;0.20;;;;;;;18.98;100.00;99736.28;6319416;22;20026;-56
2021/09/19 12:41:14;;;;;;;0.30;0.20;;;;;;;19.14;100.00;99738.09;6338439;22;20049;-58
2021/09/19 12:44:19;;;;;;;0.98;0.00;;;;;;;19.11;100.00;99742.75;6339118;22;20069;-60
2021/09/19 12:47:28;;;;;;;0.40;0.10;;;;;;;19.21;100.00;99741.03;6338599;22;20045;-59
2021/09/19 12:50:34;;;;;;;1.38;0.10;;;;;;;19.32;100.00;99746.50;6338821;22;20075;-59
2021/09/19 12:53:38;;;;;;;1.70;0.47;;;;;;;19.36;100.00;99744.16;6338459;22;20018;-59
2021/09/19 12:56:40;;;;;;;2.20;0.10;;;;;;;19.40;100.00;99749.50;6338327;22;20021;-59
2021/09/19 12:59:44;;;;;;;1.00;0.30;;;;;;;19.60;100.00;99755.28;6338603;22;20029;-59
2021/09/19 13:03:05;;;;;;;0.10;0.10;;;;;;;19.95;100.00;99756.97;6338319;22;20476;-59
2021/09/19 13:06:08;;;;;;;;;;;;;;;20.07;100.00;99754.69;6338513;22;20037;-59
2021/09/19 13:09:11;;;;;;;0.47;0.25;;;;;;;20.06;100.00;99756.00;6338840;22;19916;-58
2021/09/19 13:12:14;;;;;;;0.30;0.10;;;;;;;20.05;100.00;99754.47;6338413;22;20025;-57
2021/09/19 13:15:20;;;;;;;1.17;0.10;;;;;;;20.18;100.00;99755.22;6338119;22;20030;-58
2021/09/19 13:18:23;;;;;;;0.47;0.10;;;;;;;20.35;100.00;99752.88;6338410;22;20493;-57
2021/09/19 13:21:26;;;;;;;3.50;0.30;;;;;;;20.47;100.00;99758.28;6338235;22;20068;-59
2021/09/19 13:24:29;;;;;;;2.00;0.20;;;;;;;20.46;100.00;99753.94;6338260;22;20025;-59
2021/09/19 13:27:33;;;;;;;0.45;0.10;;;;;;;20.47;100.00;99753.38;6339113;22;20053;-59
2021/09/19 13:30:36;;;;;;;0.98;0.30;;;;;;;20.36;100.00;99753.59;6339514;22;20060;-59
2021/09/19 13:33:38;;;;;;;2.08;0.30;;;;;;;20.38;100.00;99762.31;6339520;22;20055;-59
2021/09/19 13:36:42;;;;;;;0.50;0.30;;;;;;;20.45;100.00;99753.16;6339303;22;20079;-59
2021/09/19 13:39:46;;;;;;;0.10;0.00;;;;;;;20.35;100.00;99755.69;6320552;22;20024;-58
2021/09/19 13:42:49;;;;;;;0.75;0.38;;;;;;;20.05;100.00;99768.63;6339422;22;20496;-58
2021/09/19 13:45:52;;;;;;;0.25;0.10;;;;;;;19.74;100.00;99758.13;6339278;22;20022;-57
2021/09/19 13:48:55;;;;;;;0.35;0.08;;;;;;;19.50;100.00;99759.06;6339655;22;20025;-57
2021/09/19 13:52:00;;;;;;;0.20;0.10;;;;;;;19.24;100.00;99765.38;6339539;22;20026;-56
2021/09/19 13:55:04;;;;;;;0.10;0.00;;;;;;;19.10;100.00;99780.72;6339208;22;20327;-56
2021/09/19 13:58:09;;;;;;;3.47;0.20;;;;;;;18.92;100.00;99778.72;6339134;22;20320;-56
2021/09/19 14:01:12;;;;;;;6.68;0.28;;;;;;;18.76;100.00;99788.16;6338902;22;20022;-59
2021/09/19 14:04:17;;;;;;;0.25;0.15;;;;;;;18.45;100.00;99795.22;6338873;22;20025;-59
2021/09/19 14:07:21;;;;;;;3.60;0.32;;;;;;;18.31;100.00;99798.44;6339450;22;20141;-59
2021/09/19 14:10:24;;;;;;;5.55;0.20;;;;;;;18.28;100.00;99799.53;6338751;22;20052;-56
2021/09/19 14:13:28;;;;;;;2.45;1.08;;;;;;;18.17;100.00;99806.81;6338530;22;20022;-57
2021/09/19 14:16:33;;;;;;;1.95;0.30;;;;;;;18.17;100.00;99808.84;6338913;22;20068;-58
2021/09/19 14:19:36;;;;;;;1.45;0.45;;;;;;;18.20;100.00;99819.06;6338786;22;20342;-57
2021/09/19 14:22:39;;;;;;;0.40;0.20;;;;;;;18.16;100.00;99816.56;6339025;22;20328;-59
2021/09/19 14:25:41;;;;;;;2.70;0.30;;;;;;;18.42;100.00;99826.53;6319647;22;20029;-58
2021/09/19 14:28:46;;;;;;;1.75;0.47;;;;;;;18.53;100.00;99820.78;6339038;22;20071;-58
2021/09/19 14:31:49;;;;;;;0.63;0.30;;;;;;;18.45;100.00;99828.31;6338556;22;20129;-58
2021/09/19 14:34:52;;;;;;;1.17;0.35;;;;;;;18.25;100.00;99829.53;6338672;22;20018;-58
2021/09/19 14:37:55;;;;;;;0.50;0.20;;;;;;;18.00;100.00;99825.94;6339377;22;20021;-58